Time;durP1;ratioP1;P1;durP2;ratioP2;P2;SDS_P1;SDS_P2;PMS_P1;PMS_P2;Temp;Humidity;BMP_temperature;BMP_pressure;BME280_temperature;BME280_humidity;BME280_pressure;Samples;Min_cycle;Max_cycle;Signal;HPM_P1;HPM_P2
2023/12/05 00:01:47;;;;;;;30.40;18.30;;;-2.60;99.90;;;;;;5035757;28;20446;-64
2023/12/05 00:04:15;;;;;;;34.23;18.60;;;-2.60;99.90;;;;;;5033028;28;20424;-66
2023/12/05 00:07:12;;;;;;;27.80;18.43;;;-2.60;99.90;;;;;;5039906;28;20432;-65
2023/12/05 00:09:38;;;;;;;30.50;17.37;;;-2.60;99.90;;;;;;5030248;28;20493;-64
2023/12/05 00:12:04;;;;;;;32.47;22.00;;;-2.70;99.90;;;;;;5033486;28;20501;-65
2023/12/05 00:14:32;;;;;;;39.10;22.47;;;-2.70;99.90;;;;;;5035202;28;20757;-65
2023/12/05 00:17:00;;;;;;;36.33;21.23;;;-2.70;99.90;;;;;;5034294;28;20410;-65
2023/12/05 00:19:26;;;;;;;34.70;19.57;;;-2.70;99.90;;;;;;5032841;28;20823;-65
2023/12/05 00:21:52;;;;;;;36.40;20.67;;;-2.70;99.90;;;;;;5035347;28;20430;-65
2023/12/05 00:24:18;;;;;;;30.90;18.73;;;-2.70;99.90;;;;;;5039395;28;20421;-65
2023/12/05 00:26:44;;;;;;;30.47;18.40;;;-2.60;99.90;;;;;;5032093;28;20419;-65
2023/12/05 00:29:10;;;;;;;33.33;19.33;;;-2.60;99.90;;;;;;5032372;28;20454;-65
2023/12/05 00:31:36;;;;;;;36.30;18.50;;;-2.60;99.90;;;;;;5029497;28;20427;-65
2023/12/05 00:34:04;;;;;;;34.17;22.43;;;-2.60;99.90;;;;;;5033990;28;20410;-65
2023/12/05 00:36:30;;;;;;;43.70;22.37;;;-2.50;99.90;;;;;;5038701;28;20500;-65
2023/12/05 00:38:59;;;;;;;35.30;19.80;;;-2.50;99.90;;;;;;5036628;28;20734;-64
2023/12/05 00:41:25;;;;;;;32.80;18.30;;;-2.50;99.90;;;;;;5034133;28;20516;-65
2023/12/05 00:43:52;;;;;;;31.03;19.00;;;-2.50;99.90;;;;;;5032778;28;20429;-64
2023/12/05 00:46:18;;;;;;;33.07;20.00;;;-2.40;99.90;;;;;;5034963;28;20542;-65
2023/12/05 00:48:44;;;;;;;31.50;18.43;;;-2.40;99.90;;;;;;5033808;28;20446;-64
2023/12/05 00:51:10;;;;;;;36.73;18.80;;;-2.40;99.90;;;;;;5032550;28;20437;-65
2023/12/05 00:53:36;;;;;;;28.50;19.00;;;-2.40;99.90;;;;;;5038263;28;20406;-64
2023/12/05 00:56:02;;;;;;;32.00;20.40;;;-2.40;99.90;;;;;;5031375;28;20406;-64
2023/12/05 00:58:30;;;;;;;39.13;18.13;;;-2.40;99.90;;;;;;5029449;28;20421;-64
2023/12/05 01:00:59;;;;;;;37.80;18.80;;;-2.40;99.90;;;;;;5032842;28;20456;-64
2023/12/05 01:03:25;;;;;;;26.57;17.90;;;-2.30;99.90;;;;;;5031923;28;20417;-64
2023/12/05 01:05:51;;;;;;;30.00;17.83;;;-2.30;99.90;;;;;;5016535;28;20817;-64
2023/12/05 01:08:17;;;;;;;31.97;18.70;;;-2.30;99.90;;;;;;5034027;28;21003;-63
2023/12/05 01:10:43;;;;;;;32.53;18.60;;;-2.30;99.90;;;;;;5038159;28;20461;-64
2023/12/05 01:13:09;;;;;;;28.93;17.97;;;-2.30;99.90;;;;;;5034837;28;20406;-64
2023/12/05 01:15:35;;;;;;;31.70;18.77;;;-2.30;99.90;;;;;;5031774;28;20441;-64
2023/12/05 01:18:02;;;;;;;31.60;19.00;;;-2.30;99.90;;;;;;5033237;28;20410;-64
2023/12/05 01:20:28;;;;;;;29.07;19.03;;;-2.30;99.90;;;;;;5026264;28;20438;-66
2023/12/05 01:22:54;;;;;;;34.43;19.70;;;-2.30;99.90;;;;;;5033698;28;20453;-64
2023/12/05 01:25:21;;;;;;;34.37;18.17;;;-2.30;99.90;;;;;;5028903;28;20446;-64
2023/12/05 01:27:47;;;;;;;28.63;19.20;;;-2.30;99.90;;;;;;5028285;28;20462;-66
2023/12/05 01:30:13;;;;;;;28.70;17.50;;;-2.30;99.90;;;;;;5028315;28;20446;-64
2023/12/05 01:32:39;;;;;;;32.70;20.07;;;-2.30;99.90;;;;;;5033923;28;20421;-64
2023/12/05 01:35:05;;;;;;;40.27;19.67;;;-2.30;99.90;;;;;;5040822;28;20402;-64
2023/12/05 01:37:31;;;;;;;30.90;20.57;;;-2.30;99.90;;;;;;5042735;28;20414;-65
2023/12/05 01:39:57;;;;;;;28.53;17.67;;;-2.30;99.90;;;;;;5031534;28;20486;-64
2023/12/05 01:42:23;;;;;;;35.23;17.77;;;-2.30;99.90;;;;;;5043868;28;20912;-64
2023/12/05 01:44:49;;;;;;;34.43;20.60;;;-2.30;99.90;;;;;;5044576;28;20468;-64
2023/12/05 01:47:18;;;;;;;36.47;18.33;;;-2.30;99.90;;;;;;5040814;28;20418;-64
2023/12/05 01:49:47;;;;;;;24.50;15.17;;;-2.30;99.90;;;;;;5038858;28;20401;-66
2023/12/05 01:52:13;;;;;;;29.70;16.53;;;-2.30;99.90;;;;;;5040978;28;20448;-64
2023/12/05 01:54:43;;;;;;;27.77;17.80;;;-2.30;99.90;;;;;;5037434;28;20812;-64
2023/12/05 01:57:09;;;;;;;31.30;19.00;;;-2.30;99.90;;;;;;5031115;28;20771;-64
2023/12/05 01:59:35;;;;;;;31.53;19.37;;;-2.30;99.90;;;;;;5043926;28;20412;-64
2023/12/05 02:02:02;;;;;;;32.13;17.97;;;-2.30;99.90;;;;;;5042551;28;20450;-65
2023/12/05 02:04:29;;;;;;;29.20;17.90;;;-2.30;99.90;;;;;;5031232;28;20470;-65
2023/12/05 02:06:55;;;;;;;34.67;19.07;;;-2.20;99.90;;;;;;5030931;28;20407;-65
2023/12/05 02:09:22;;;;;;;31.43;20.60;;;-2.20;99.90;;;;;;5033791;28;20458;-65
2023/12/05 02:11:49;;;;;;;36.00;18.07;;;-2.20;99.90;;;;;;5036733;28;20241;-65
2023/12/05 02:14:14;;;;;;;31.33;17.37;;;-2.20;99.90;;;;;;5030878;28;20406;-65
2023/12/05 02:16:53;;;;;;;34.57;18.73;;;-2.20;99.90;;;;;;5035892;28;20509;-65
2023/12/05 02:19:36;;;;;;;26.53;17.83;;;-2.20;99.90;;;;;;5037800;28;20202;-65
2023/12/05 02:22:09;;;;;;;32.57;19.70;;;-2.20;99.90;;;;;;5040827;28;20947;-65
2023/12/05 02:24:43;;;;;;;29.00;17.77;;;-2.20;99.90;;;;;;5032339;28;20500;-64
2023/12/05 02:27:37;;;;;;;37.43;18.13;;;-2.20;99.90;;;;;;5048924;28;20463;-65
2023/12/05 02:30:04;;;;;;;29.27;17.03;;;-2.20;99.90;;;;;;5037259;28;20457;-64
2023/12/05 02:32:29;;;;;;;27.00;14.40;;;-2.20;99.90;;;;;;5043710;28;20407;-66
2023/12/05 02:34:55;;;;;;;33.07;18.37;;;-2.20;99.90;;;;;;5035797;28;20497;-65
2023/12/05 02:37:54;;;;;;;34.40;20.33;;;-2.20;99.90;;;;;;5046420;28;20657;-65
2023/12/05 02:40:41;;;;;;;29.73;17.30;;;-2.20;99.90;;;;;;5040969;28;20199;-65
2023/12/05 02:43:12;;;;;;;28.03;17.97;;;-2.20;99.90;;;;;;5046041;28;20904;-67
2023/12/05 02:45:40;;;;;;;25.10;15.77;;;-2.10;99.90;;;;;;5027475;28;20968;-65
2023/12/05 02:48:11;;;;;;;25.80;18.10;;;-2.10;99.90;;;;;;5045404;28;20994;-65
2023/12/05 02:50:37;;;;;;;34.00;19.10;;;-2.10;99.90;;;;;;5018111;28;20959;-65
2023/12/05 02:53:03;;;;;;;33.07;18.13;;;-2.10;99.90;;;;;;5038453;28;20445;-65
2023/12/05 02:55:28;;;;;;;33.33;19.47;;;-2.10;99.90;;;;;;5045382;28;20429;-65
2023/12/05 02:57:54;;;;;;;33.17;17.50;;;-2.10;99.90;;;;;;5039116;28;20414;-65
2023/12/05 03:00:19;;;;;;;32.10;18.70;;;-2.10;99.90;;;;;;5038996;28;20289;-65
2023/12/05 03:02:45;;;;;;;30.77;18.17;;;-2.10;99.90;;;;;;5041308;28;20179;-64
2023/12/05 03:05:11;;;;;;;27.00;16.83;;;-2.10;99.90;;;;;;5034331;28;20945;-64
2023/12/05 03:07:36;;;;;;;28.83;18.97;;;-2.10;99.90;;;;;;5035664;28;20203;-67
2023/12/05 03:10:03;;;;;;;28.50;17.97;;;-2.00;99.90;;;;;;5034056;28;20214;-65
2023/12/05 03:12:31;;;;;;;32.07;18.30;;;-2.10;99.90;;;;;;5033307;28;20187;-65
2023/12/05 03:14:57;;;;;;;29.43;18.70;;;-2.00;99.90;;;;;;5031346;28;20771;-65
2023/12/05 03:17:23;;;;;;;29.90;17.47;;;-2.00;99.90;;;;;;5035045;28;20455;-65
2023/12/05 03:19:48;;;;;;;36.23;19.20;;;-2.00;99.90;;;;;;5034274;28;20265;-65
2023/12/05 03:22:14;;;;;;;28.10;16.97;;;-2.00;99.90;;;;;;5035374;28;20245;-64
2023/12/05 03:24:39;;;;;;;29.07;18.80;;;-2.00;99.90;;;;;;5035169;28;20176;-65
2023/12/05 03:27:05;;;;;;;29.17;16.80;;;-2.00;99.90;;;;;;5033952;28;20275;-65
2023/12/05 03:29:30;;;;;;;37.53;21.03;;;-2.00;99.90;;;;;;5032693;28;20650;-64
2023/12/05 03:31:57;;;;;;;23.83;16.90;;;-2.00;99.90;;;;;;5031577;28;20198;-64
2023/12/05 03:34:22;;;;;;;32.63;16.67;;;-2.00;99.90;;;;;;5034441;28;20179;-64
2023/12/05 03:36:48;;;;;;;27.60;16.87;;;-2.00;99.90;;;;;;5029939;28;20890;-65
2023/12/05 03:39:14;;;;;;;34.23;19.40;;;-2.00;99.90;;;;;;5029322;28;20194;-65
2023/12/05 03:41:39;;;;;;;39.77;19.90;;;-2.00;99.90;;;;;;5030248;28;20227;-65
2023/12/05 03:44:05;;;;;;;27.00;17.97;;;-2.00;99.90;;;;;;5029771;28;20482;-65
2023/12/05 03:46:31;;;;;;;27.20;18.07;;;-2.00;99.90;;;;;;5030404;28;20183;-66
2023/12/05 03:48:56;;;;;;;30.17;17.90;;;-2.00;99.90;;;;;;5030519;28;20682;-64
2023/12/05 03:51:22;;;;;;;26.17;17.93;;;-2.00;99.90;;;;;;5028123;28;20690;-66
2023/12/05 03:53:47;;;;;;;26.10;17.30;;;-1.90;99.90;;;;;;5027199;28;20228;-65
2023/12/05 03:56:13;;;;;;;30.37;17.80;;;-1.90;99.90;;;;;;5031156;28;20176;-65
2023/12/05 03:58:40;;;;;;;26.00;17.27;;;-2.00;99.90;;;;;;5029748;28;20607;-64
2023/12/05 04:01:06;;;;;;;28.07;18.70;;;-1.90;99.90;;;;;;5029595;28;20223;-66
2023/12/05 04:03:31;;;;;;;38.03;20.20;;;-1.90;99.90;;;;;;5028823;28;20510;-65
2023/12/05 04:05:57;;;;;;;27.70;17.97;;;-1.90;99.90;;;;;;5029611;28;20183;-66
2023/12/05 04:08:22;;;;;;;35.90;18.27;;;-1.90;99.90;;;;;;5027657;28;20191;-66
2023/12/05 04:10:48;;;;;;;43.40;21.67;;;-1.90;99.90;;;;;;5034094;28;20196;-66
2023/12/05 04:13:14;;;;;;;26.63;18.63;;;-1.90;99.90;;;;;;5036452;28;20172;-65
2023/12/05 04:15:41;;;;;;;37.00;20.30;;;-1.90;99.90;;;;;;5043132;28;20264;-65
2023/12/05 04:18:07;;;;;;;34.33;17.47;;;-1.90;99.90;;;;;;5040873;28;20516;-64
2023/12/05 04:20:33;;;;;;;29.80;18.53;;;-1.90;99.90;;;;;;5040588;28;20441;-66
2023/12/05 04:22:58;;;;;;;29.03;19.83;;;-1.80;99.90;;;;;;5039412;28;20179;-66
2023/12/05 04:25:24;;;;;;;33.90;20.40;;;-1.80;99.90;;;;;;5034624;28;20262;-66
2023/12/05 04:27:49;;;;;;;26.30;18.50;;;-1.80;99.90;;;;;;5032297;28;20793;-66
2023/12/05 04:30:15;;;;;;;35.80;20.17;;;-1.80;99.90;;;;;;5031343;28;20233;-66
2023/12/05 04:32:41;;;;;;;32.80;19.53;;;-1.80;99.90;;;;;;5032548;28;20376;-66
2023/12/05 04:35:06;;;;;;;28.10;17.83;;;-1.80;99.90;;;;;;5032956;28;20176;-66
2023/12/05 04:37:32;;;;;;;30.43;18.50;;;-1.80;99.90;;;;;;5034482;28;20168;-65
2023/12/05 04:39:57;;;;;;;33.07;19.00;;;-1.80;99.90;;;;;;5038876;28;20259;-64
2023/12/05 04:42:23;;;;;;;29.33;18.87;;;-1.80;99.90;;;;;;5044534;28;20729;-65
2023/12/05 04:44:49;;;;;;;28.70;19.40;;;-1.80;99.90;;;;;;5034164;28;20245;-66
2023/12/05 04:47:14;;;;;;;32.67;19.40;;;-1.70;99.90;;;;;;5028854;28;20255;-65
2023/12/05 04:49:40;;;;;;;30.67;19.30;;;-1.80;99.90;;;;;;5038948;28;20179;-65
2023/12/05 04:52:05;;;;;;;28.80;19.93;;;-1.70;99.90;;;;;;5039770;28;20312;-66
2023/12/05 04:54:31;;;;;;;28.47;16.17;;;-1.70;99.90;;;;;;5035726;28;20171;-65
2023/12/05 04:56:56;;;;;;;31.67;18.50;;;-1.70;99.90;;;;;;5044647;28;20313;-65
2023/12/05 04:59:22;;;;;;;27.93;19.10;;;-1.70;99.90;;;;;;5040708;28;20248;-65
2023/12/05 05:01:49;;;;;;;32.70;19.07;;;-1.70;99.90;;;;;;5036810;28;20214;-65
2023/12/05 05:04:15;;;;;;;29.60;20.10;;;-1.60;99.90;;;;;;5043512;28;20506;-66
2023/12/05 05:06:41;;;;;;;27.40;16.90;;;-1.60;99.90;;;;;;5030902;28;20421;-66
2023/12/05 05:09:07;;;;;;;33.30;21.03;;;-1.60;99.90;;;;;;5038041;28;20680;-65
2023/12/05 05:11:33;;;;;;;33.77;19.70;;;-1.60;99.90;;;;;;5034397;28;20242;-66
2023/12/05 05:13:58;;;;;;;37.13;19.57;;;-1.60;99.90;;;;;;5037916;28;20417;-65
2023/12/05 05:16:24;;;;;;;31.93;19.00;;;-1.60;99.90;;;;;;5032996;28;20168;-66
2023/12/05 05:18:52;;;;;;;25.73;16.60;;;-1.60;99.90;;;;;;5031980;28;20186;-65
2023/12/05 05:21:17;;;;;;;29.13;16.40;;;-1.60;99.90;;;;;;5037870;28;20199;-64
2023/12/05 05:23:43;;;;;;;32.17;19.13;;;-1.60;99.90;;;;;;5042035;28;20429;-68
2023/12/05 05:26:09;;;;;;;26.00;18.60;;;-1.60;99.90;;;;;;5047577;28;20516;-63
2023/12/05 05:28:34;;;;;;;30.63;19.70;;;-1.50;99.90;;;;;;5036899;28;20203;-63
2023/12/05 05:31:03;;;;;;;27.90;17.53;;;-1.50;99.90;;;;;;5043517;28;20220;-65
2023/12/05 05:33:29;;;;;;;30.80;18.50;;;-1.50;99.90;;;;;;5034373;28;20168;-66
2023/12/05 05:35:54;;;;;;;31.27;19.90;;;-1.50;99.90;;;;;;5028838;28;20422;-65
2023/12/05 05:38:20;;;;;;;30.67;18.03;;;-1.50;99.90;;;;;;5031269;28;20274;-64
2023/12/05 05:40:47;;;;;;;27.80;18.77;;;-1.50;99.90;;;;;;5035423;28;20210;-67
2023/12/05 05:43:13;;;;;;;32.80;18.40;;;-1.50;99.90;;;;;;5031588;28;20184;-63
2023/12/05 05:45:39;;;;;;;25.47;15.33;;;-1.50;99.90;;;;;;5027506;28;21055;-64
2023/12/05 05:48:04;;;;;;;27.03;16.93;;;-1.50;99.90;;;;;;5031025;28;20214;-64
2023/12/05 05:50:30;;;;;;;27.20;19.97;;;-1.40;99.90;;;;;;5030739;28;20443;-69
2023/12/05 05:52:55;;;;;;;33.70;17.53;;;-1.40;99.90;;;;;;5031715;28;20187;-67
2023/12/05 05:55:24;;;;;;;21.60;13.83;;;-1.40;99.90;;;;;;5031225;28;20704;-68
2023/12/05 05:57:50;;;;;;;32.63;18.10;;;-1.40;99.90;;;;;;5037638;28;20191;-65
2023/12/05 06:00:17;;;;;;;27.93;19.03;;;-1.40;99.90;;;;;;5023875;28;20454;-66
2023/12/05 06:02:42;;;;;;;25.77;18.40;;;-1.40;99.90;;;;;;5027921;28;20427;-65
2023/12/05 06:05:08;;;;;;;33.00;18.10;;;-1.40;99.90;;;;;;5027100;28;20429;-65
2023/12/05 06:07:34;;;;;;;31.47;17.80;;;-1.40;99.90;;;;;;5027859;28;20597;-64
2023/12/05 06:09:59;;;;;;;26.10;17.50;;;-1.40;99.90;;;;;;5030421;28;20597;-64
2023/12/05 06:12:26;;;;;;;31.70;19.67;;;-1.40;99.90;;;;;;5026424;28;20418;-65
2023/12/05 06:14:52;;;;;;;28.20;18.60;;;-1.40;99.90;;;;;;5026751;28;20716;-64
2023/12/05 06:17:17;;;;;;;31.50;19.23;;;-1.40;99.90;;;;;;5026517;28;20411;-66
2023/12/05 06:19:43;;;;;;;30.70;16.77;;;-1.30;99.90;;;;;;5027560;28;20518;-65
2023/12/05 06:22:08;;;;;;;33.57;21.00;;;-1.40;99.90;;;;;;5027457;28;20176;-65
2023/12/05 06:24:34;;;;;;;29.23;18.67;;;-1.30;99.90;;;;;;5027359;28;20214;-65
2023/12/05 06:27:00;;;;;;;34.10;19.23;;;-1.40;99.90;;;;;;5027569;28;20551;-65
2023/12/05 06:29:25;;;;;;;25.67;17.00;;;-1.30;99.90;;;;;;5027457;28;20195;-66
2023/12/05 06:31:51;;;;;;;31.23;16.33;;;-1.30;99.90;;;;;;5024372;28;20549;-65
2023/12/05 06:34:17;;;;;;;34.50;18.57;;;-1.30;99.90;;;;;;5027308;28;20168;-66
2023/12/05 06:36:42;;;;;;;27.90;19.30;;;-1.40;99.90;;;;;;5022111;28;20179;-65
2023/12/05 06:39:08;;;;;;;29.70;19.67;;;-1.40;99.90;;;;;;5026415;28;20225;-64
2023/12/05 06:41:35;;;;;;;30.17;18.80;;;-1.30;99.90;;;;;;5027179;28;20219;-65
2023/12/05 06:44:02;;;;;;;25.33;17.67;;;-1.30;99.90;;;;;;5029177;28;20210;-65
2023/12/05 06:46:28;;;;;;;32.33;20.10;;;-1.30;99.90;;;;;;5027750;28;20418;-65
2023/12/05 06:48:54;;;;;;;25.97;17.60;;;-1.30;99.90;;;;;;5023054;28;20925;-65
2023/12/05 06:51:19;;;;;;;33.10;19.43;;;-1.30;99.90;;;;;;5037820;28;20426;-65
2023/12/05 06:53:48;;;;;;;32.30;18.40;;;-1.30;99.90;;;;;;5040179;28;20560;-65
2023/12/05 06:56:15;;;;;;;28.87;18.40;;;-1.30;99.90;;;;;;5031793;28;20207;-65
2023/12/05 06:58:41;;;;;;;28.63;17.93;;;-1.30;99.90;;;;;;5033006;28;20948;-64
2023/12/05 07:01:08;;;;;;;29.40;19.30;;;-1.30;99.90;;;;;;5026560;28;20461;-65
2023/12/05 07:03:34;;;;;;;26.10;16.90;;;-1.30;99.90;;;;;;5025313;28;20422;-65
2023/12/05 07:05:59;;;;;;;28.40;18.27;;;-1.30;99.90;;;;;;5024403;28;20418;-65
2023/12/05 07:08:26;;;;;;;31.20;17.93;;;-1.30;99.90;;;;;;5026911;28;20515;-65
2023/12/05 07:10:52;;;;;;;26.27;19.00;;;-1.30;99.90;;;;;;5029900;28;20208;-65
2023/12/05 07:13:17;;;;;;;31.50;19.60;;;-1.30;99.90;;;;;;5034381;28;20802;-65
2023/12/05 07:15:43;;;;;;;28.37;18.43;;;-1.20;99.90;;;;;;5036587;28;20176;-65
2023/12/05 07:18:11;;;;;;;38.03;17.90;;;-1.20;99.90;;;;;;5032601;28;20208;-66
2023/12/05 07:20:40;;;;;;;28.73;17.10;;;-1.30;99.90;;;;;;5029119;28;20691;-66
2023/12/05 07:23:09;;;;;;;37.27;22.07;;;-1.20;99.90;;;;;;5033877;28;20440;-65
2023/12/05 07:25:39;;;;;;;32.43;18.53;;;-1.20;99.90;;;;;;5029751;28;20417;-65
2023/12/05 07:28:04;;;;;;;29.37;19.30;;;-1.20;99.90;;;;;;5017833;28;20454;-65
2023/12/05 07:30:31;;;;;;;34.03;18.60;;;-1.20;99.90;;;;;;5044432;28;20935;-64
2023/12/05 07:32:56;;;;;;;37.63;20.93;;;-1.30;99.90;;;;;;5034116;28;20168;-64
2023/12/05 07:35:22;;;;;;;29.00;18.70;;;-1.30;99.90;;;;;;5033772;28;20417;-70
2023/12/05 07:37:49;;;;;;;29.70;18.50;;;-1.30;99.90;;;;;;5036451;28;20421;-65
2023/12/05 07:40:15;;;;;;;27.87;18.30;;;-1.30;99.90;;;;;;5040920;28;20220;-66
2023/12/05 07:42:40;;;;;;;27.90;17.47;;;-1.30;99.90;;;;;;5035070;28;20422;-63
2023/12/05 07:45:07;;;;;;;31.60;20.33;;;-1.30;99.90;;;;;;5033422;28;20441;-66
2023/12/05 07:47:33;;;;;;;34.67;20.57;;;-1.40;99.90;;;;;;5033026;28;20286;-66
2023/12/05 07:49:59;;;;;;;31.93;21.37;;;-1.30;99.90;;;;;;5038225;28;20413;-59
2023/12/05 07:52:25;;;;;;;29.43;17.67;;;-1.30;99.90;;;;;;5044846;28;20912;-61
2023/12/05 07:54:51;;;;;;;33.17;21.70;;;-1.30;99.90;;;;;;5040019;28;20418;-62
2023/12/05 07:57:22;;;;;;;34.63;20.10;;;-1.30;99.90;;;;;;5037352;28;20172;-63
2023/12/05 07:59:51;;;;;;;33.97;19.40;;;-1.30;99.90;;;;;;5033288;28;20188;-59
2023/12/05 08:02:17;;;;;;;30.23;20.10;;;-1.30;99.90;;;;;;5028979;28;20414;-64
2023/12/05 08:04:42;;;;;;;33.23;18.90;;;-1.30;99.90;;;;;;5029557;28;20406;-64
2023/12/05 08:07:08;;;;;;;27.83;19.43;;;-1.30;99.90;;;;;;5031853;28;20932;-62
2023/12/05 08:09:33;;;;;;;35.63;21.30;;;-1.30;99.90;;;;;;5029392;28;20200;-62
2023/12/05 08:11:59;;;;;;;33.23;19.47;;;-1.30;99.90;;;;;;5016996;28;20215;-61
2023/12/05 08:14:25;;;;;;;25.77;20.60;;;-1.20;99.90;;;;;;5032499;28;20171;-60
2023/12/05 08:16:51;;;;;;;29.57;18.07;;;-1.20;99.90;;;;;;5028286;28;20545;-63
2023/12/05 08:19:16;;;;;;;37.00;21.50;;;-1.20;99.90;;;;;;5029520;28;20262;-63
2023/12/05 08:21:42;;;;;;;29.63;18.47;;;-1.10;99.90;;;;;;5028516;28;20739;-61
2023/12/05 08:24:07;;;;;;;30.93;18.70;;;-1.10;99.90;;;;;;5028882;28;20176;-59
2023/12/05 08:26:33;;;;;;;33.77;20.43;;;-1.10;99.90;;;;;;5036105;28;20622;-59
2023/12/05 08:28:58;;;;;;;28.07;19.57;;;-1.00;99.90;;;;;;5023700;28;20245;-62
2023/12/05 08:31:24;;;;;;;26.23;17.60;;;-1.00;99.90;;;;;;5034986;28;20190;-63
2023/12/05 08:33:50;;;;;;;25.00;16.60;;;-1.00;99.90;;;;;;5035502;28;20253;-61
2023/12/05 08:36:15;;;;;;;38.20;21.03;;;-1.00;99.90;;;;;;5034567;28;20426;-65
2023/12/05 08:38:41;;;;;;;35.40;20.43;;;-1.00;99.90;;;;;;5027722;28;20183;-62
2023/12/05 08:41:07;;;;;;;30.63;19.60;;;-1.00;99.90;;;;;;5036006;28;20203;-64
2023/12/05 08:43:33;;;;;;;28.80;20.10;;;-0.90;99.90;;;;;;5031975;28;20622;-63
2023/12/05 08:45:59;;;;;;;32.03;18.10;;;-0.90;99.90;;;;;;5040098;28;20422;-63
2023/12/05 08:48:25;;;;;;;29.97;19.27;;;-0.80;99.90;;;;;;5031960;28;20203;-64
2023/12/05 08:50:51;;;;;;;31.90;18.27;;;-0.90;99.90;;;;;;5031862;28;20504;-62
2023/12/05 08:53:17;;;;;;;32.03;18.17;;;-0.90;99.90;;;;;;5035009;28;20168;-61
2023/12/05 08:55:43;;;;;;;35.53;20.73;;;-0.90;99.90;;;;;;5038156;28;20417;-61
2023/12/05 08:58:09;;;;;;;27.83;19.00;;;-0.80;99.90;;;;;;5033468;28;20183;-64
2023/12/05 09:00:35;;;;;;;28.37;18.20;;;-0.70;99.90;;;;;;5046803;28;20452;-61
2023/12/05 09:03:00;;;;;;;25.93;17.77;;;-0.70;99.90;;;;;;5037574;28;20362;-64
2023/12/05 09:05:26;;;;;;;30.23;18.03;;;-0.70;99.90;;;;;;5031801;28;20172;-68
2023/12/05 09:07:52;;;;;;;34.80;16.70;;;-0.70;99.90;;;;;;5037056;28;20409;-67
2023/12/05 09:10:17;;;;;;;31.00;18.53;;;-0.60;99.90;;;;;;5031872;28;20184;-63
2023/12/05 09:12:43;;;;;;;28.53;19.90;;;-0.60;99.90;;;;;;5035005;28;20168;-64
2023/12/05 09:15:09;;;;;;;35.80;22.93;;;-0.50;99.90;;;;;;5032085;28;20168;-64
2023/12/05 09:17:34;;;;;;;40.57;25.70;;;-0.30;99.90;;;;;;5038673;28;20456;-64
2023/12/05 09:20:00;;;;;;;26.37;19.47;;;0.40;99.90;;;;;;5025531;28;20195;-65
2023/12/05 09:22:26;;;;;;;28.43;17.43;;;-0.10;99.90;;;;;;5039099;28;20167;-64
2023/12/05 09:24:51;;;;;;;27.00;17.70;;;-0.20;99.90;;;;;;5028320;28;20199;-63
2023/12/05 09:27:17;;;;;;;31.47;21.00;;;-0.20;99.90;;;;;;5034328;28;20167;-67
2023/12/05 09:29:42;;;;;;;26.37;18.80;;;-0.20;99.90;;;;;;5031497;28;20187;-66
2023/12/05 09:32:08;;;;;;;33.33;21.10;;;-0.20;99.90;;;;;;5029569;28;20643;-62
2023/12/05 09:34:34;;;;;;;31.60;18.43;;;-0.20;99.90;;;;;;5038509;28;20176;-66
2023/12/05 09:36:59;;;;;;;32.03;20.63;;;-0.20;99.90;;;;;;5032551;28;20194;-63
2023/12/05 09:39:25;;;;;;;29.63;19.17;;;-0.20;99.90;;;;;;5029590;28;20583;-67
2023/12/05 09:41:57;;;;;;;29.10;17.37;;;-0.20;99.90;;;;;;5029428;28;20199;-62
2023/12/05 09:44:26;;;;;;;35.00;21.33;;;-0.10;99.90;;;;;;5038481;28;20297;-64
2023/12/05 09:46:57;;;;;;;28.40;18.27;;;0.00;99.90;;;;;;5036039;28;20971;-64
2023/12/05 09:49:26;;;;;;;23.20;16.30;;;0.20;99.90;;;;;;5027172;28;21485;-64
2023/12/05 09:51:53;;;;;;;31.67;20.73;;;0.20;99.90;;;;;;5027030;28;20450;-64
2023/12/05 09:54:20;;;;;;;29.20;18.43;;;0.20;99.90;;;;;;5031168;28;20419;-65
2023/12/05 09:56:48;;;;;;;28.63;18.30;;;0.10;99.90;;;;;;5034386;28;20511;-69
2023/12/05 09:59:15;;;;;;;31.60;16.67;;;0.20;99.90;;;;;;5032512;28;20418;-65
2023/12/05 10:01:43;;;;;;;24.97;17.77;;;0.10;99.90;;;;;;5028481;28;20509;-65
2023/12/05 10:04:16;;;;;;;32.73;18.20;;;0.10;99.90;;;;;;5035399;28;20436;-66
2023/12/05 10:06:43;;;;;;;28.53;18.57;;;0.10;99.90;;;;;;5030669;28;20449;-65
2023/12/05 10:09:10;;;;;;;28.73;19.83;;;0.10;99.90;;;;;;5030873;28;20790;-66
2023/12/05 10:11:37;;;;;;;21.90;16.10;;;0.10;99.90;;;;;;5032744;28;20446;-65
2023/12/05 10:14:03;;;;;;;24.77;17.43;;;0.10;99.90;;;;;;5033043;28;20418;-64
2023/12/05 10:16:31;;;;;;;24.70;17.20;;;0.10;99.90;;;;;;5015665;28;20465;-66
2023/12/05 10:18:57;;;;;;;27.63;18.53;;;0.10;99.90;;;;;;5030717;28;20175;-65
2023/12/05 10:21:23;;;;;;;28.10;16.57;;;0.00;99.90;;;;;;5028174;28;20442;-66
2023/12/05 10:23:49;;;;;;;30.13;18.73;;;0.00;99.90;;;;;;5031006;28;20939;-69
2023/12/05 10:26:15;;;;;;;28.73;16.90;;;0.00;99.90;;;;;;5035248;28;20194;-65
2023/12/05 10:28:52;;;;;;;30.40;20.20;;;0.00;99.90;;;;;;5031532;28;21123;-65
2023/12/05 10:31:18;;;;;;;26.53;18.13;;;0.10;99.90;;;;;;5032527;28;20191;-63
2023/12/05 10:33:44;;;;;;;29.60;18.50;;;0.10;99.90;;;;;;5032197;28;20497;-65
2023/12/05 10:36:13;;;;;;;27.23;18.80;;;0.10;99.90;;;;;;5029927;28;20853;-65
2023/12/05 10:38:43;;;;;;;25.03;15.97;;;0.10;99.90;;;;;;5031168;28;20434;-65
2023/12/05 10:41:08;;;;;;;26.73;18.53;;;0.10;99.90;;;;;;5018379;28;20461;-65
2023/12/05 10:43:34;;;;;;;24.73;16.90;;;0.30;99.90;;;;;;5029722;28;20905;-68
2023/12/05 10:46:03;;;;;;;28.27;17.47;;;0.30;99.90;;;;;;5031650;28;20206;-65
2023/12/05 10:48:30;;;;;;;25.03;17.80;;;0.30;99.90;;;;;;5020590;28;20578;-68
2023/12/05 10:50:56;;;;;;;26.73;17.27;;;0.20;99.90;;;;;;5033997;28;20983;-64
2023/12/05 10:53:22;;;;;;;29.53;17.80;;;0.20;99.90;;;;;;5033764;28;20497;-66
2023/12/05 10:55:48;;;;;;;26.87;18.20;;;0.30;99.90;;;;;;5031124;28;20436;-65
2023/12/05 10:58:14;;;;;;;25.30;17.40;;;0.20;99.90;;;;;;5033207;28;20420;-66
2023/12/05 11:00:40;;;;;;;25.33;17.00;;;0.20;99.90;;;;;;5035470;28;20449;-64
2023/12/05 11:03:06;;;;;;;21.50;16.50;;;0.20;99.90;;;;;;5034973;28;20414;-68
2023/12/05 11:05:35;;;;;;;24.83;16.93;;;0.20;99.90;;;;;;5034177;28;20480;-70
2023/12/05 11:08:03;;;;;;;20.20;15.50;;;0.20;99.90;;;;;;5033319;28;20547;-64
2023/12/05 11:10:29;;;;;;;21.67;14.90;;;0.20;99.90;;;;;;5033510;28;20963;-64
2023/12/05 11:12:58;;;;;;;25.37;16.17;;;0.30;99.90;;;;;;5032974;28;20411;-65
2023/12/05 11:15:44;;;;;;;27.23;16.70;;;0.30;99.90;;;;;;5030700;28;20303;-65
2023/12/05 11:18:27;;;;;;;23.53;17.83;;;0.40;99.90;;;;;;5034056;28;20787;-65
2023/12/05 11:21:19;;;;;;;30.03;17.90;;;0.40;99.90;;;;;;5034114;28;20437;-63
2023/12/05 11:24:03;;;;;;;30.33;16.90;;;0.50;99.90;;;;;;5030650;28;20417;-63
2023/12/05 11:26:51;;;;;;;28.83;17.57;;;0.60;99.90;;;;;;5033722;28;20453;-64
2023/12/05 11:29:50;;;;;;;26.90;17.43;;;0.60;99.90;;;;;;5031231;28;20454;-65
2023/12/05 11:32:45;;;;;;;24.67;16.50;;;0.60;99.90;;;;;;5029859;28;20406;-65
2023/12/05 11:35:27;;;;;;;27.47;15.80;;;0.50;99.90;;;;;;5035163;28;20777;-64
2023/12/05 11:38:12;;;;;;;27.20;16.70;;;0.70;99.90;;;;;;5036337;28;20748;-65
2023/12/05 11:40:38;;;;;;;21.97;15.10;;;0.70;99.90;;;;;;5030307;28;20916;-65
2023/12/05 11:43:09;;;;;;;22.53;15.23;;;0.70;99.90;;;;;;5032514;28;20559;-65
2023/12/05 11:45:39;;;;;;;22.30;15.70;;;0.70;99.90;;;;;;5029772;28;20807;-64
2023/12/05 11:48:06;;;;;;;28.70;17.80;;;0.80;99.90;;;;;;5032514;28;20537;-65
2023/12/05 11:50:47;;;;;;;19.87;14.33;;;0.90;99.90;;;;;;5037144;28;20861;-64
2023/12/05 11:53:14;;;;;;;24.20;16.80;;;0.80;99.90;;;;;;5031752;28;20905;-65
2023/12/05 11:55:42;;;;;;;24.13;17.10;;;0.80;99.90;;;;;;5031434;28;20422;-65
2023/12/05 11:58:30;;;;;;;23.43;16.17;;;0.80;99.90;;;;;;5025703;28;20433;-69
2023/12/05 12:01:13;;;;;;;26.17;18.07;;;0.80;99.90;;;;;;5036693;28;20481;-64
2023/12/05 12:03:48;;;;;;;27.43;16.83;;;0.80;99.90;;;;;;5025853;28;20429;-64
2023/12/05 12:06:19;;;;;;;25.57;17.07;;;0.80;99.90;;;;;;5029866;28;20428;-64
2023/12/05 12:08:48;;;;;;;23.27;16.83;;;0.80;99.90;;;;;;5034378;28;20462;-65
2023/12/05 12:11:14;;;;;;;30.70;16.63;;;0.80;99.90;;;;;;5027249;28;21626;-65
2023/12/05 12:13:40;;;;;;;26.67;17.93;;;0.80;99.90;;;;;;5025971;28;20434;-65
2023/12/05 12:16:06;;;;;;;22.90;15.70;;;0.90;99.90;;;;;;5041610;28;20175;-65
2023/12/05 12:18:32;;;;;;;25.80;16.80;;;0.90;99.90;;;;;;5040696;28;20179;-61
2023/12/05 12:20:59;;;;;;;25.50;14.80;;;1.00;99.90;;;;;;5012144;28;20231;-63
2023/12/05 12:23:25;;;;;;;27.73;16.70;;;1.10;99.90;;;;;;5032932;28;20428;-64
2023/12/05 12:25:54;;;;;;;21.90;17.17;;;1.10;99.90;;;;;;5041218;28;20433;-64
2023/12/05 12:28:25;;;;;;;24.93;17.60;;;1.10;99.90;;;;;;5038916;28;20454;-63
2023/12/05 12:30:51;;;;;;;20.40;16.70;;;1.20;99.90;;;;;;5034490;28;20454;-63